Ride Results

Biggenden (11-07-2015)
Ride distance: 80.0 km

Outcomes - Biggenden (11-07-2015)
Division No. of Entries Retired / DNE Completed Withdrawn Ineligible V/O Percentage Completed
HW 10 - 5 1 - 4 50.00%
MW 16 - 16 - - - 100.00%
LW 15 - 14 - - 1 93.33%
JN 12 - 11 - - 1 91.67%
Totals 53 - 46 1 - 6 86.79%
Results - Biggenden (11-07-2015)
No. Rider Horse Place Time Leg Speeds Total
Km/Hr
H/R bpm
Heavyweight
3 Olaf Lochtenberg Matta Mia Dayimi 1 (BC) 5:07:00 15.3, 15.8 15.64 35, 49, 49 (Avg:49)
6 Chris Nichols Bashan Memphis 2 5:36:00 13.1, 15.5 14.29 36, 39, 46 (Avg:42)
50 Robert Fenech Gundabah Fair Lady 3 5:49:00 14.6, 12.9 13.75 38, 54, 60 (Avg:57)
10 Anthony Wolgast Sweet Sensation 4 6:34:00 12.3, 12.0 12.18 30, 44, 39 (Avg:41)
48 Niels Lochtenberg Matta Mia Dougal 5 6:49:00 13.3, 10.4 11.74 34, 47, 49 (Avg:48)
35 Mark Ruge Nero Lame L2 0:00:00 11.5, 10.4 - 32, 53, 50 (Avg:51)
54 Angela Waldock Indiana Seabreeze Lame L2 0:00:00 14.6, 12.9 - 42, 42, 53 (Avg:47)
26 Elizabeth Barnes Sahala Tennessee Moon Heart Rate L1 0:00:00 9.2 - 32, 61 (Avg:61)
31 Gary Surch Ramalea Cruize Heart Rate L1 0:00:00 9.8 - 35, 66 (Avg:66)
49 Emma Quilter Performance Park Indiana Withdrawn P/R 0:00:00 - - 41
Middleweight
16 Bec Miller Hirstglen Mack 1 (BC) 5:08:00 14.9, 16.2 15.58 32, 39, 46 (Avg:42)
21 Kerrie McAuliffe Ry-Naura Zanardi 2 5:31:00 14.9, 14.0 14.50 30, 40, 43 (Avg:41)
19 Jacinta Stubbings Ffire Storm 3 5:36:00 14.7, 13.8 14.29 45, 52, 55 (Avg:53)
23 Matilda Hose Splendacrest Zack 4 6:06:00 12.9, 13.2 13.11 29, 45, 60 (Avg:52)
57 Rosemary Hull Lindall Footloose 5 6:20:00 12.1, 13.1 12.63 37, 43, 56 (Avg:49)
37 Lynne Drinkwater Ollympia 6 6:24:00 12.7, 12.2 12.50 30, 41, 47 (Avg:44)
7 Brenda Davy Bashan Kayla 7 6:33:00 12.3, 12.1 12.21 35, 42, 44 (Avg:43)
43 Amanda Wilson Gheerulla Sargent 8 6:34:00 12.4, 11.9 12.18 38, 40, 46 (Avg:43)
40 Barbara Woods Gheerulla Carley 8 6:34:00 12.4, 11.9 12.18 35, 45, 41 (Avg:43)
20 Julia Zasada Hirstglen Probably 10 6:37:00 11.5, 12.6 12.09 33, 49, 55 (Avg:52)
52 Fiona Fenech Eus Anzac 11 6:41:00 12.0, 11.8 11.97 44, 43, 45 (Avg:44)
24 Lesley Cataldo Rodborough Hassan 12 6:52:00 12.3, 11.0 11.65 32, 43, 56 (Avg:49)
14 Gwen Bartolo Haaris 13 6:53:00 11.1, 12.1 11.62 30, 42, 46 (Avg:44)
30 Caroline Fitzgerald Lanamere Kudos 14 6:59:00 11.8, 11.1 11.46 34, 41, 46 (Avg:43)
56 Casey Risson Die Kinder Mysfyre 14 6:59:00 11.8, 11.1 11.46 38, 42, 49 (Avg:45)
13 Kellie Hart Noname 16 7:07:00 10.9, 11.5 11.24 35, 44, 45 (Avg:44)
Lightweight
36 Sally Genninges Toad 1 4:50:00 16.4, 16.6 16.55 38, 47, 50 (Avg:48)
22 Janelle Taylor Calico Jarkamarn 2 (BC) 5:07:00 15.3, 15.8 15.64 30, 37, 43 (Avg:40)
58 Sarah Love Kalkadoon Ricochet 3 5:35:00 14.1, 14.5 14.33 32, 42, 48 (Avg:45)
34 Kelsey Irvine Brookleigh Donoma 4 6:02:00 13.2, 13.2 13.26 30, 41, 45 (Avg:43)
2 Mary Sims Mt Eerwah Silver Duet 5 6:28:00 13.0, 11.7 12.37 33, 41, 48 (Avg:44)
17 Jessyca Dakin Hirstglen Herbie 6 6:37:00 11.5, 12.6 12.09 31, 42, 48 (Avg:45)
25 Katie Brooks Jum-Jum Egyptian Queen 7 6:40:00 12.4, 11.5 12.00 34, 44, 55 (Avg:49)
1 Jess Ashman Sur'een Al Naa'sit 8 6:41:00 11.9, 11.9 11.97 38, 44, 55 (Avg:49)
11 Bree Cook Limerick's Illusion 9 7:07:00 10.9, 11.5 11.24 32, 45, 47 (Avg:46)
44 Victoria Clarke Milton 10 7:09:00 11.0, 11.3 11.19 32, 46, 52 (Avg:49)
45 Adriana Sardoni Willowvale Sirahh 10 7:09:00 11.0, 11.3 11.19 28, 41, 45 (Avg:43)
42 Hedi Laigar Magic Glenn Tayla 12 8:12:00 9.6, 9.8 9.76 36, 42, 42 (Avg:42)
39 Leigh Ann Sample Magic Glenn Chisel 12 8:12:00 9.6, 9.8 9.76 37, 42, 38 (Avg:40)
32 Pandora Bevan Eus Warman 14 8:12:02 9.8, 9.6 9.76 36, 47, 55 (Avg:51)
33 Christal Rizk Ramalea Keith Lame L1 0:00:00 9.8 - 30, 42, 54 (Avg:48)
Junior
5 Christina Simpson Agape Evezra 1 (BC) 5:35:00 13.1, 15.6 14.33 35, 44, 51 (Avg:47)
4 Mel Simpson Storm 2 5:36:00 13.1, 15.5 14.29 33, 40, 45 (Avg:42)
55 Emma Dimech Abbeywood Where It's At 3 6:04:00 12.9, 13.4 13.19 35, 40, 48 (Avg:44)
27 Tahlia Franke Cooroora Euros 4 6:06:00 12.9, 13.2 13.11 36, 51, 48 (Avg:49)
9 Jazzy Maher Bashan Silver Nadeer 5 6:33:00 12.3, 12.1 12.21 38, 39, 46 (Avg:42)
41 Alissa Woods Magic Glenn Avelina 6 6:34:00 12.4, 11.9 12.18 42, 51, 50 (Avg:50)
28 Jessica Fitzgerald Beaudacious te 7 6:59:00 11.8, 11.1 11.46 38, 40, 46 (Avg:43)
29 Timothy Fitzgerald Lanamere Brio 7 6:59:00 11.8, 11.1 11.46 33, 42, 42 (Avg:42)
46 Erin Ellison Ardair Skoda 9 7:09:00 11.0, 11.3 11.19 30, 39, 45 (Avg:42)
47 Jasmine Perrier Sahala Abu Simbel 9 7:09:00 11.0, 11.3 11.19 30, 37, 44 (Avg:40)
38 Zac Sample Kidaman Ashquar 11 8:12:01 9.6, 9.8 9.76 38, 41, 46 (Avg:43)
8 Maeve Paten Gheerulla Aspen Lame L1 0:00:00 12.3 - 45, 45 (Avg:45)